sensor_id;sensor_type;location;lat;lon;timestamp;temperature;humidity
22734;DHT22;11534;51.994;5.692;2024-02-23T00:01:36;5.60;99.90
22734;DHT22;11534;51.994;5.692;2024-02-23T00:04:02;5.60;99.90
22734;DHT22;11534;51.994;5.692;2024-02-23T00:06:28;5.50;99.90
22734;DHT22;11534;51.994;5.692;2024-02-23T00:08:54;5.50;99.90
22734;DHT22;11534;51.994;5.692;2024-02-23T00:11:21;5.60;99.90
22734;DHT22;11534;51.994;5.692;2024-02-23T00:13:46;5.60;99.90
22734;DHT22;11534;51.994;5.692;2024-02-23T00:16:12;5.60;99.90
22734;DHT22;11534;51.994;5.692;2024-02-23T00:18:38;5.70;99.90
22734;DHT22;11534;51.994;5.692;2024-02-23T00:21:04;5.60;99.90
22734;DHT22;11534;51.994;5.692;2024-02-23T00:23:30;5.70;99.90
22734;DHT22;11534;51.994;5.692;2024-02-23T00:25:55;5.60;99.90
22734;DHT22;11534;51.994;5.692;2024-02-23T00:28:21;5.50;99.90
22734;DHT22;11534;51.994;5.692;2024-02-23T00:30:47;5.60;99.90
22734;DHT22;11534;51.994;5.692;2024-02-23T00:33:13;5.50;99.90
22734;DHT22;11534;51.994;5.692;2024-02-23T00:35:38;5.60;99.90
22734;DHT22;11534;51.994;5.692;2024-02-23T00:38:04;5.50;99.90
22734;DHT22;11534;51.994;5.692;2024-02-23T00:40:30;5.60;99.90
22734;DHT22;11534;51.994;5.692;2024-02-23T00:42:55;5.60;99.90
22734;DHT22;11534;51.994;5.692;2024-02-23T00:45:21;5.60;99.90
22734;DHT22;11534;51.994;5.692;2024-02-23T00:47:47;5.60;99.90
22734;DHT22;11534;51.994;5.692;2024-02-23T00:50:13;5.70;99.90
22734;DHT22;11534;51.994;5.692;2024-02-23T00:52:39;5.50;99.90
22734;DHT22;11534;51.994;5.692;2024-02-23T00:55:06;5.50;99.90
22734;DHT22;11534;51.994;5.692;2024-02-23T00:57:34;5.50;99.90
22734;DHT22;11534;51.994;5.692;2024-02-23T01:00:01;5.40;99.90
22734;DHT22;11534;51.994;5.692;2024-02-23T01:02:28;5.30;99.90
22734;DHT22;11534;51.994;5.692;2024-02-23T01:04:54;5.20;99.90
22734;DHT22;11534;51.994;5.692;2024-02-23T01:07:22;4.90;99.90
22734;DHT22;11534;51.994;5.692;2024-02-23T01:09:48;4.80;99.90
22734;DHT22;11534;51.994;5.692;2024-02-23T01:12:14;4.80;99.90
22734;DHT22;11534;51.994;5.692;2024-02-23T01:14:39;4.80;99.90
22734;DHT22;11534;51.994;5.692;2024-02-23T01:17:05;4.90;99.90
22734;DHT22;11534;51.994;5.692;2024-02-23T01:19:30;5.00;99.90
22734;DHT22;11534;51.994;5.692;2024-02-23T01:21:56;5.10;99.90
22734;DHT22;11534;51.994;5.692;2024-02-23T01:24:26;5.20;99.90
22734;DHT22;11534;51.994;5.692;2024-02-23T01:26:53;5.20;99.90
22734;DHT22;11534;51.994;5.692;2024-02-23T01:29:21;5.20;99.90
22734;DHT22;11534;51.994;5.692;2024-02-23T01:31:48;5.30;99.90
22734;DHT22;11534;51.994;5.692;2024-02-23T01:34:13;5.40;99.90
22734;DHT22;11534;51.994;5.692;2024-02-23T01:36:39;5.30;99.90
22734;DHT22;11534;51.994;5.692;2024-02-23T01:39:05;5.30;99.90
22734;DHT22;11534;51.994;5.692;2024-02-23T01:41:30;5.30;99.90
22734;DHT22;11534;51.994;5.692;2024-02-23T01:43:57;5.30;99.90
22734;DHT22;11534;51.994;5.692;2024-02-23T01:46:23;5.30;99.90
22734;DHT22;11534;51.994;5.692;2024-02-23T01:48:49;5.30;99.90
22734;DHT22;11534;51.994;5.692;2024-02-23T01:51:15;5.30;99.90
22734;DHT22;11534;51.994;5.692;2024-02-23T01:53:41;5.30;99.90
22734;DHT22;11534;51.994;5.692;2024-02-23T01:56:07;5.30;99.90
22734;DHT22;11534;51.994;5.692;2024-02-23T01:58:35;5.30;99.90
22734;DHT22;11534;51.994;5.692;2024-02-23T02:01:01;5.30;99.90
22734;DHT22;11534;51.994;5.692;2024-02-23T02:03:27;5.20;99.90
22734;DHT22;11534;51.994;5.692;2024-02-23T02:05:53;5.30;99.90
22734;DHT22;11534;51.994;5.692;2024-02-23T02:08:20;5.30;99.90
22734;DHT22;11534;51.994;5.692;2024-02-23T02:10:46;5.30;99.90
22734;DHT22;11534;51.994;5.692;2024-02-23T02:13:12;5.20;99.90
22734;DHT22;11534;51.994;5.692;2024-02-23T02:15:38;5.30;99.90
22734;DHT22;11534;51.994;5.692;2024-02-23T02:18:04;5.20;99.90
22734;DHT22;11534;51.994;5.692;2024-02-23T02:20:32;5.30;99.90
22734;DHT22;11534;51.994;5.692;2024-02-23T02:22:59;5.20;99.90
22734;DHT22;11534;51.994;5.692;2024-02-23T02:25:24;5.20;99.90
22734;DHT22;11534;51.994;5.692;2024-02-23T02:27:50;5.20;99.90
22734;DHT22;11534;51.994;5.692;2024-02-23T02:30:16;5.20;99.90
22734;DHT22;11534;51.994;5.692;2024-02-23T02:32:42;5.20;99.90
22734;DHT22;11534;51.994;5.692;2024-02-23T02:35:09;5.10;99.90
22734;DHT22;11534;51.994;5.692;2024-02-23T02:37:35;5.10;99.90
22734;DHT22;11534;51.994;5.692;2024-02-23T02:40:01;5.20;99.90
22734;DHT22;11534;51.994;5.692;2024-02-23T02:42:28;5.10;99.90
22734;DHT22;11534;51.994;5.692;2024-02-23T02:44:54;5.20;99.90
22734;DHT22;11534;51.994;5.692;2024-02-23T02:47:19;5.10;99.90
22734;DHT22;11534;51.994;5.692;2024-02-23T02:49:45;5.10;99.90
22734;DHT22;11534;51.994;5.692;2024-02-23T02:52:11;5.00;99.90
22734;DHT22;11534;51.994;5.692;2024-02-23T02:54:36;5.10;99.90
22734;DHT22;11534;51.994;5.692;2024-02-23T02:57:02;5.10;99.90
22734;DHT22;11534;51.994;5.692;2024-02-23T02:59:28;5.10;99.90
22734;DHT22;11534;51.994;5.692;2024-02-23T03:01:53;5.00;99.90
22734;DHT22;11534;51.994;5.692;2024-02-23T03:04:19;5.10;99.90
22734;DHT22;11534;51.994;5.692;2024-02-23T03:06:45;5.10;99.90
22734;DHT22;11534;51.994;5.692;2024-02-23T03:09:10;5.10;99.90
22734;DHT22;11534;51.994;5.692;2024-02-23T03:11:36;5.10;99.90
22734;DHT22;11534;51.994;5.692;2024-02-23T03:14:03;5.00;99.90
22734;DHT22;11534;51.994;5.692;2024-02-23T03:16:28;5.00;99.90
22734;DHT22;11534;51.994;5.692;2024-02-23T03:18:56;5.10;99.90
22734;DHT22;11534;51.994;5.692;2024-02-23T03:21:22;5.10;99.90
22734;DHT22;11534;51.994;5.692;2024-02-23T03:23:47;5.10;99.90
22734;DHT22;11534;51.994;5.692;2024-02-23T03:26:13;5.00;99.90
22734;DHT22;11534;51.994;5.692;2024-02-23T03:28:42;5.00;99.90
22734;DHT22;11534;51.994;5.692;2024-02-23T03:31:08;5.00;99.90
22734;DHT22;11534;51.994;5.692;2024-02-23T03:33:34;5.10;99.90
22734;DHT22;11534;51.994;5.692;2024-02-23T03:35:59;5.10;99.90
22734;DHT22;11534;51.994;5.692;2024-02-23T03:38:25;5.00;99.90
22734;DHT22;11534;51.994;5.692;2024-02-23T03:40:50;5.10;99.90
22734;DHT22;11534;51.994;5.692;2024-02-23T03:43:16;5.00;99.90
22734;DHT22;11534;51.994;5.692;2024-02-23T03:45:42;5.10;99.90
22734;DHT22;11534;51.994;5.692;2024-02-23T03:48:07;5.10;99.90
22734;DHT22;11534;51.994;5.692;2024-02-23T03:50:33;5.00;99.90
22734;DHT22;11534;51.994;5.692;2024-02-23T03:52:59;5.10;99.90
22734;DHT22;11534;51.994;5.692;2024-02-23T03:55:24;5.10;99.90
22734;DHT22;11534;51.994;5.692;2024-02-23T03:57:50;5.00;99.90
22734;DHT22;11534;51.994;5.692;2024-02-23T04:00:16;4.90;99.90
22734;DHT22;11534;51.994;5.692;2024-02-23T04:02:41;5.00;99.90
22734;DHT22;11534;51.994;5.692;2024-02-23T04:05:07;5.00;99.90
22734;DHT22;11534;51.994;5.692;2024-02-23T04:07:33;5.00;99.90
22734;DHT22;11534;51.994;5.692;2024-02-23T04:09:58;5.00;99.90
22734;DHT22;11534;51.994;5.692;2024-02-23T04:12:24;5.00;99.90
22734;DHT22;11534;51.994;5.692;2024-02-23T04:14:50;4.90;99.90
22734;DHT22;11534;51.994;5.692;2024-02-23T04:17:16;4.90;99.90
22734;DHT22;11534;51.994;5.692;2024-02-23T04:19:42;5.00;99.90
22734;DHT22;11534;51.994;5.692;2024-02-23T04:22:08;5.00;99.90
22734;DHT22;11534;51.994;5.692;2024-02-23T04:24:37;5.00;99.90
22734;DHT22;11534;51.994;5.692;2024-02-23T04:27:07;5.00;99.90
22734;DHT22;11534;51.994;5.692;2024-02-23T04:29:33;5.00;99.90
22734;DHT22;11534;51.994;5.692;2024-02-23T04:32:00;5.00;99.90
22734;DHT22;11534;51.994;5.692;2024-02-23T04:34:27;5.00;99.90
22734;DHT22;11534;51.994;5.692;2024-02-23T04:36:52;4.90;99.90
22734;DHT22;11534;51.994;5.692;2024-02-23T04:39:18;5.00;99.90
22734;DHT22;11534;51.994;5.692;2024-02-23T04:41:44;5.00;99.90
22734;DHT22;11534;51.994;5.692;2024-02-23T04:44:09;5.00;99.90
22734;DHT22;11534;51.994;5.692;2024-02-23T04:46:35;5.00;99.90
22734;DHT22;11534;51.994;5.692;2024-02-23T04:49:01;5.00;99.90
22734;DHT22;11534;51.994;5.692;2024-02-23T04:51:27;5.00;99.90
22734;DHT22;11534;51.994;5.692;2024-02-23T04:53:53;5.10;99.90
22734;DHT22;11534;51.994;5.692;2024-02-23T04:56:18;5.00;99.90
22734;DHT22;11534;51.994;5.692;2024-02-23T04:58:44;5.10;99.90
22734;DHT22;11534;51.994;5.692;2024-02-23T05:01:10;5.10;99.90
22734;DHT22;11534;51.994;5.692;2024-02-23T05:03:36;5.10;99.90
22734;DHT22;11534;51.994;5.692;2024-02-23T05:06:03;5.10;99.90
22734;DHT22;11534;51.994;5.692;2024-02-23T05:08:28;5.10;99.90
22734;DHT22;11534;51.994;5.692;2024-02-23T05:10:56;5.10;99.90
22734;DHT22;11534;51.994;5.692;2024-02-23T05:13:21;5.10;99.90
22734;DHT22;11534;51.994;5.692;2024-02-23T05:15:47;5.20;99.90
22734;DHT22;11534;51.994;5.692;2024-02-23T05:18:12;5.20;99.90
22734;DHT22;11534;51.994;5.692;2024-02-23T05:20:38;5.20;99.90
22734;DHT22;11534;51.994;5.692;2024-02-23T05:23:04;5.30;99.90
22734;DHT22;11534;51.994;5.692;2024-02-23T05:25:29;5.20;99.90
22734;DHT22;11534;51.994;5.692;2024-02-23T05:27:55;5.30;99.90
22734;DHT22;11534;51.994;5.692;2024-02-23T05:30:21;5.30;99.90
22734;DHT22;11534;51.994;5.692;2024-02-23T05:32:48;5.30;99.90
22734;DHT22;11534;51.994;5.692;2024-02-23T05:35:14;5.40;99.90
22734;DHT22;11534;51.994;5.692;2024-02-23T05:37:41;5.40;99.90
22734;DHT22;11534;51.994;5.692;2024-02-23T05:40:07;5.40;99.90
22734;DHT22;11534;51.994;5.692;2024-02-23T05:42:36;5.40;99.90
22734;DHT22;11534;51.994;5.692;2024-02-23T05:45:02;5.40;99.90
22734;DHT22;11534;51.994;5.692;2024-02-23T05:47:30;5.40;99.90
22734;DHT22;11534;51.994;5.692;2024-02-23T05:49:56;5.50;99.90
22734;DHT22;11534;51.994;5.692;2024-02-23T05:52:21;5.50;99.90
22734;DHT22;11534;51.994;5.692;2024-02-23T05:54:47;5.40;99.90
22734;DHT22;11534;51.994;5.692;2024-02-23T05:57:13;5.40;99.90
22734;DHT22;11534;51.994;5.692;2024-02-23T05:59:38;5.50;99.90
22734;DHT22;11534;51.994;5.692;2024-02-23T06:02:04;5.50;99.90
22734;DHT22;11534;51.994;5.692;2024-02-23T06:04:30;5.60;99.90
22734;DHT22;11534;51.994;5.692;2024-02-23T06:06:55;5.50;99.90
22734;DHT22;11534;51.994;5.692;2024-02-23T06:09:21;5.60;99.90
22734;DHT22;11534;51.994;5.692;2024-02-23T06:11:47;5.60;99.90
22734;DHT22;11534;51.994;5.692;2024-02-23T06:14:13;5.60;99.90
22734;DHT22;11534;51.994;5.692;2024-02-23T06:16:39;5.70;99.90
22734;DHT22;11534;51.994;5.692;2024-02-23T06:19:06;5.60;99.90
22734;DHT22;11534;51.994;5.692;2024-02-23T06:21:31;5.60;99.90
22734;DHT22;11534;51.994;5.692;2024-02-23T06:23:58;5.60;99.90
22734;DHT22;11534;51.994;5.692;2024-02-23T06:26:23;5.50;99.90
22734;DHT22;11534;51.994;5.692;2024-02-23T06:28:49;5.50;99.90
22734;DHT22;11534;51.994;5.692;2024-02-23T06:31:15;5.50;99.90
22734;DHT22;11534;51.994;5.692;2024-02-23T06:33:40;5.50;99.90
22734;DHT22;11534;51.994;5.692;2024-02-23T06:36:06;5.50;99.90
22734;DHT22;11534;51.994;5.692;2024-02-23T06:38:33;5.50;99.90
22734;DHT22;11534;51.994;5.692;2024-02-23T06:40:59;5.50;99.90
22734;DHT22;11534;51.994;5.692;2024-02-23T06:43:24;5.60;99.90
22734;DHT22;11534;51.994;5.692;2024-02-23T06:45:50;5.60;99.90
22734;DHT22;11534;51.994;5.692;2024-02-23T06:48:16;5.60;99.90
22734;DHT22;11534;51.994;5.692;2024-02-23T06:50:42;5.50;99.90
22734;DHT22;11534;51.994;5.692;2024-02-23T06:53:08;5.50;99.90
22734;DHT22;11534;51.994;5.692;2024-02-23T06:55:37;5.50;99.90
22734;DHT22;11534;51.994;5.692;2024-02-23T06:58:02;5.60;99.90
22734;DHT22;11534;51.994;5.692;2024-02-23T07:00:30;5.60;99.90
22734;DHT22;11534;51.994;5.692;2024-02-23T07:02:56;5.60;99.90
22734;DHT22;11534;51.994;5.692;2024-02-23T07:05:24;5.60;99.90
22734;DHT22;11534;51.994;5.692;2024-02-23T07:07:50;5.60;99.90
22734;DHT22;11534;51.994;5.692;2024-02-23T07:10:16;5.60;99.90
22734;DHT22;11534;51.994;5.692;2024-02-23T07:12:43;5.70;99.90
22734;DHT22;11534;51.994;5.692;2024-02-23T07:15:10;5.70;99.90
22734;DHT22;11534;51.994;5.692;2024-02-23T07:17:35;5.70;99.90
22734;DHT22;11534;51.994;5.692;2024-02-23T07:20:01;5.70;99.90
22734;DHT22;11534;51.994;5.692;2024-02-23T07:22:34;5.70;99.90
22734;DHT22;11534;51.994;5.692;2024-02-23T07:24:59;5.80;99.90
22734;DHT22;11534;51.994;5.692;2024-02-23T07:27:27;5.80;99.90
22734;DHT22;11534;51.994;5.692;2024-02-23T07:29:52;5.80;99.90
22734;DHT22;11534;51.994;5.692;2024-02-23T07:32:18;5.80;99.90
22734;DHT22;11534;51.994;5.692;2024-02-23T07:34:44;5.80;99.90
22734;DHT22;11534;51.994;5.692;2024-02-23T07:37:09;5.80;99.90
22734;DHT22;11534;51.994;5.692;2024-02-23T07:39:35;5.80;99.90
22734;DHT22;11534;51.994;5.692;2024-02-23T07:42:00;5.90;99.90
22734;DHT22;11534;51.994;5.692;2024-02-23T07:44:27;5.90;99.90
22734;DHT22;11534;51.994;5.692;2024-02-23T07:46:52;6.00;99.90
22734;DHT22;11534;51.994;5.692;2024-02-23T07:49:19;5.90;99.90
22734;DHT22;11534;51.994;5.692;2024-02-23T07:51:45;5.90;99.90
22734;DHT22;11534;51.994;5.692;2024-02-23T07:54:10;5.90;99.90
22734;DHT22;11534;51.994;5.692;2024-02-23T07:56:36;5.90;99.90
22734;DHT22;11534;51.994;5.692;2024-02-23T07:59:02;6.00;99.90
22734;DHT22;11534;51.994;5.692;2024-02-23T08:01:28;6.00;99.90
22734;DHT22;11534;51.994;5.692;2024-02-23T08:03:54;6.10;99.90
22734;DHT22;11534;51.994;5.692;2024-02-23T08:06:20;6.10;99.90
22734;DHT22;11534;51.994;5.692;2024-02-23T08:08:46;6.20;99.90
22734;DHT22;11534;51.994;5.692;2024-02-23T08:11:12;6.10;99.90
22734;DHT22;11534;51.994;5.692;2024-02-23T08:13:39;6.20;99.90
22734;DHT22;11534;51.994;5.692;2024-02-23T08:16:05;6.20;99.90
22734;DHT22;11534;51.994;5.692;2024-02-23T08:18:31;6.20;99.90
22734;DHT22;11534;51.994;5.692;2024-02-23T08:20:58;6.20;99.90
22734;DHT22;11534;51.994;5.692;2024-02-23T08:23:24;6.20;99.90
22734;DHT22;11534;51.994;5.692;2024-02-23T08:25:50;6.30;99.90
22734;DHT22;11534;51.994;5.692;2024-02-23T08:28:16;6.20;99.90
22734;DHT22;11534;51.994;5.692;2024-02-23T08:30:41;6.20;99.90
22734;DHT22;11534;51.994;5.692;2024-02-23T08:33:07;6.30;99.90
22734;DHT22;11534;51.994;5.692;2024-02-23T08:35:35;6.30;99.90
22734;DHT22;11534;51.994;5.692;2024-02-23T08:38:01;6.30;99.90
22734;DHT22;11534;51.994;5.692;2024-02-23T08:40:26;6.30;99.90
22734;DHT22;11534;51.994;5.692;2024-02-23T08:42:52;6.40;99.90
22734;DHT22;11534;51.994;5.692;2024-02-23T08:45:18;6.50;99.90
22734;DHT22;11534;51.994;5.692;2024-02-23T08:47:43;6.50;99.90
22734;DHT22;11534;51.994;5.692;2024-02-23T08:50:09;6.50;99.90
22734;DHT22;11534;51.994;5.692;2024-02-23T08:52:35;6.50;99.90
22734;DHT22;11534;51.994;5.692;2024-02-23T08:55:00;6.50;99.90
22734;DHT22;11534;51.994;5.692;2024-02-23T08:57:27;6.50;99.90
22734;DHT22;11534;51.994;5.692;2024-02-23T08:59:53;6.50;99.90
22734;DHT22;11534;51.994;5.692;2024-02-23T09:02:19;6.50;99.90
22734;DHT22;11534;51.994;5.692;2024-02-23T09:04:46;6.50;99.90
22734;DHT22;11534;51.994;5.692;2024-02-23T09:07:12;6.50;99.90
22734;DHT22;11534;51.994;5.692;2024-02-23T09:09:38;6.50;99.90
22734;DHT22;11534;51.994;5.692;2024-02-23T09:12:03;6.50;99.90
22734;DHT22;11534;51.994;5.692;2024-02-23T09:14:29;6.50;99.90
22734;DHT22;11534;51.994;5.692;2024-02-23T09:16:55;6.50;99.90
22734;DHT22;11534;51.994;5.692;2024-02-23T09:19:21;6.50;99.90
22734;DHT22;11534;51.994;5.692;2024-02-23T09:21:47;6.50;99.90
22734;DHT22;11534;51.994;5.692;2024-02-23T09:24:12;6.60;99.90
22734;DHT22;11534;51.994;5.692;2024-02-23T09:26:38;6.60;99.90
22734;DHT22;11534;51.994;5.692;2024-02-23T09:29:05;6.60;99.90
22734;DHT22;11534;51.994;5.692;2024-02-23T09:31:32;6.80;99.90
22734;DHT22;11534;51.994;5.692;2024-02-23T09:33:58;6.90;99.90
22734;DHT22;11534;51.994;5.692;2024-02-23T09:36:25;6.90;99.90
22734;DHT22;11534;51.994;5.692;2024-02-23T09:38:51;6.90;99.90
22734;DHT22;11534;51.994;5.692;2024-02-23T09:41:24;6.90;99.90
22734;DHT22;11534;51.994;5.692;2024-02-23T09:43:50;6.90;99.90
22734;DHT22;11534;51.994;5.692;2024-02-23T09:46:16;7.00;99.90
22734;DHT22;11534;51.994;5.692;2024-02-23T09:48:47;7.00;99.90
22734;DHT22;11534;51.994;5.692;2024-02-23T09:51:15;7.00;99.90
22734;DHT22;11534;51.994;5.692;2024-02-23T09:53:41;7.00;99.90
22734;DHT22;11534;51.994;5.692;2024-02-23T09:56:09;7.00;99.90
22734;DHT22;11534;51.994;5.692;2024-02-23T09:58:36;7.00;99.90
22734;DHT22;11534;51.994;5.692;2024-02-23T10:01:03;7.00;99.90
22734;DHT22;11534;51.994;5.692;2024-02-23T10:03:29;6.90;99.90
22734;DHT22;11534;51.994;5.692;2024-02-23T10:05:58;6.80;99.90
22734;DHT22;11534;51.994;5.692;2024-02-23T10:08:29;6.80;99.90
22734;DHT22;11534;51.994;5.692;2024-02-23T10:10:55;6.70;99.90
22734;DHT22;11534;51.994;5.692;2024-02-23T10:13:22;6.80;99.90
22734;DHT22;11534;51.994;5.692;2024-02-23T10:15:50;6.70;99.90
22734;DHT22;11534;51.994;5.692;2024-02-23T10:18:16;6.60;99.90
22734;DHT22;11534;51.994;5.692;2024-02-23T10:20:42;6.60;99.90
22734;DHT22;11534;51.994;5.692;2024-02-23T10:23:08;6.60;99.90
22734;DHT22;11534;51.994;5.692;2024-02-23T10:25:34;6.50;99.90
22734;DHT22;11534;51.994;5.692;2024-02-23T10:28:04;6.60;99.90
22734;DHT22;11534;51.994;5.692;2024-02-23T10:30:30;6.60;99.90
22734;DHT22;11534;51.994;5.692;2024-02-23T10:32:57;6.60;99.90
22734;DHT22;11534;51.994;5.692;2024-02-23T10:35:23;6.70;99.90
22734;DHT22;11534;51.994;5.692;2024-02-23T10:37:50;6.70;99.90
22734;DHT22;11534;51.994;5.692;2024-02-23T10:40:17;6.70;99.90
22734;DHT22;11534;51.994;5.692;2024-02-23T10:42:45;6.70;99.90
22734;DHT22;11534;51.994;5.692;2024-02-23T10:45:19;6.80;99.90
22734;DHT22;11534;51.994;5.692;2024-02-23T10:47:50;6.80;99.90
22734;DHT22;11534;51.994;5.692;2024-02-23T10:50:17;6.80;99.90
22734;DHT22;11534;51.994;5.692;2024-02-23T10:52:45;6.80;99.90
22734;DHT22;11534;51.994;5.692;2024-02-23T10:55:11;6.90;99.90
22734;DHT22;11534;51.994;5.692;2024-02-23T10:57:37;6.90;99.90
22734;DHT22;11534;51.994;5.692;2024-02-23T11:00:05;6.90;99.90
22734;DHT22;11534;51.994;5.692;2024-02-23T11:02:45;6.90;99.90
22734;DHT22;11534;51.994;5.692;2024-02-23T11:05:12;7.00;99.90
22734;DHT22;11534;51.994;5.692;2024-02-23T11:07:39;7.00;99.90
22734;DHT22;11534;51.994;5.692;2024-02-23T11:10:05;7.00;99.90
22734;DHT22;11534;51.994;5.692;2024-02-23T11:12:31;7.00;99.90
22734;DHT22;11534;51.994;5.692;2024-02-23T11:15:07;6.90;99.90
22734;DHT22;11534;51.994;5.692;2024-02-23T11:25:31;7.00;99.90
22734;DHT22;11534;51.994;5.692;2024-02-23T11:28:02;7.00;99.90
22734;DHT22;11534;51.994;5.692;2024-02-23T11:30:28;7.00;99.90
22734;DHT22;11534;51.994;5.692;2024-02-23T11:32:59;7.00;99.90
22734;DHT22;11534;51.994;5.692;2024-02-23T11:35:25;7.00;99.90
22734;DHT22;11534;51.994;5.692;2024-02-23T11:37:54;7.00;99.90
22734;DHT22;11534;51.994;5.692;2024-02-23T11:40:30;7.10;99.90
22734;DHT22;11534;51.994;5.692;2024-02-23T11:42:56;7.20;99.90
22734;DHT22;11534;51.994;5.692;2024-02-23T11:45:22;7.30;99.90
22734;DHT22;11534;51.994;5.692;2024-02-23T11:47:47;7.30;99.90
22734;DHT22;11534;51.994;5.692;2024-02-23T11:50:13;7.30;99.90
22734;DHT22;11534;51.994;5.692;2024-02-23T11:52:45;7.40;99.90
22734;DHT22;11534;51.994;5.692;2024-02-23T11:55:11;7.50;99.90
22734;DHT22;11534;51.994;5.692;2024-02-23T11:57:36;7.60;99.90
22734;DHT22;11534;51.994;5.692;2024-02-23T12:00:05;7.60;99.90
22734;DHT22;11534;51.994;5.692;2024-02-23T12:02:33;7.70;99.90
22734;DHT22;11534;51.994;5.692;2024-02-23T12:04:59;7.70;99.90
22734;DHT22;11534;51.994;5.692;2024-02-23T12:07:25;7.70;99.90
22734;DHT22;11534;51.994;5.692;2024-02-23T12:09:53;7.70;99.90
22734;DHT22;11534;51.994;5.692;2024-02-23T12:12:19;7.70;99.90
22734;DHT22;11534;51.994;5.692;2024-02-23T12:14:44;7.70;99.90
22734;DHT22;11534;51.994;5.692;2024-02-23T12:17:10;7.80;99.90
22734;DHT22;11534;51.994;5.692;2024-02-23T12:19:39;7.80;99.90
22734;DHT22;11534;51.994;5.692;2024-02-23T12:22:08;7.80;99.90
22734;DHT22;11534;51.994;5.692;2024-02-23T12:24:35;7.80;99.90
22734;DHT22;11534;51.994;5.692;2024-02-23T12:27:01;7.80;99.90
22734;DHT22;11534;51.994;5.692;2024-02-23T12:29:26;7.90;99.90
22734;DHT22;11534;51.994;5.692;2024-02-23T12:32:05;7.80;99.90
22734;DHT22;11534;51.994;5.692;2024-02-23T12:34:31;7.90;99.90
22734;DHT22;11534;51.994;5.692;2024-02-23T12:36:57;7.90;99.90
22734;DHT22;11534;51.994;5.692;2024-02-23T12:39:23;7.80;99.90
22734;DHT22;11534;51.994;5.692;2024-02-23T12:41:48;8.00;99.90
22734;DHT22;11534;51.994;5.692;2024-02-23T12:44:16;8.60;99.90
22734;DHT22;11534;51.994;5.692;2024-02-23T12:46:41;8.90;99.90
22734;DHT22;11534;51.994;5.692;2024-02-23T12:49:07;9.10;99.90
22734;DHT22;11534;51.994;5.692;2024-02-23T12:51:33;9.10;99.90
22734;DHT22;11534;51.994;5.692;2024-02-23T12:54:00;9.00;99.90
22734;DHT22;11534;51.994;5.692;2024-02-23T12:56:25;8.80;99.90
22734;DHT22;11534;51.994;5.692;2024-02-23T12:58:51;8.70;99.90
22734;DHT22;11534;51.994;5.692;2024-02-23T13:01:19;8.80;99.90
22734;DHT22;11534;51.994;5.692;2024-02-23T13:03:44;8.90;99.90
22734;DHT22;11534;51.994;5.692;2024-02-23T13:06:10;8.90;99.90
22734;DHT22;11534;51.994;5.692;2024-02-23T13:08:36;8.90;99.90
22734;DHT22;11534;51.994;5.692;2024-02-23T13:11:12;8.90;99.90
22734;DHT22;11534;51.994;5.692;2024-02-23T13:13:38;8.90;99.90
22734;DHT22;11534;51.994;5.692;2024-02-23T13:16:04;8.80;99.90
22734;DHT22;11534;51.994;5.692;2024-02-23T13:18:29;8.80;99.90
22734;DHT22;11534;51.994;5.692;2024-02-23T13:20:55;8.80;99.90
22734;DHT22;11534;51.994;5.692;2024-02-23T13:23:21;8.80;99.90
22734;DHT22;11534;51.994;5.692;2024-02-23T13:25:46;8.70;99.90
22734;DHT22;11534;51.994;5.692;2024-02-23T13:28:12;8.70;99.90
22734;DHT22;11534;51.994;5.692;2024-02-23T13:30:38;8.60;99.90
22734;DHT22;11534;51.994;5.692;2024-02-23T13:33:06;8.60;99.90
22734;DHT22;11534;51.994;5.692;2024-02-23T13:35:34;8.60;99.90
22734;DHT22;11534;51.994;5.692;2024-02-23T13:38:00;8.60;99.90
22734;DHT22;11534;51.994;5.692;2024-02-23T13:40:29;8.50;99.90
22734;DHT22;11534;51.994;5.692;2024-02-23T13:42:55;8.50;99.90
22734;DHT22;11534;51.994;5.692;2024-02-23T13:45:21;8.60;99.90
22734;DHT22;11534;51.994;5.692;2024-02-23T13:50:24;8.70;99.90
22734;DHT22;11534;51.994;5.692;2024-02-23T13:52:50;8.70;99.90
22734;DHT22;11534;51.994;5.692;2024-02-23T13:55:15;8.70;99.90
22734;DHT22;11534;51.994;5.692;2024-02-23T13:57:41;8.70;99.90
22734;DHT22;11534;51.994;5.692;2024-02-23T14:00:07;8.70;99.90
22734;DHT22;11534;51.994;5.692;2024-02-23T14:02:38;8.60;99.90
22734;DHT22;11534;51.994;5.692;2024-02-23T14:05:06;8.60;99.90
22734;DHT22;11534;51.994;5.692;2024-02-23T14:07:35;8.60;99.90
22734;DHT22;11534;51.994;5.692;2024-02-23T14:10:02;8.80;99.90
22734;DHT22;11534;51.994;5.692;2024-02-23T14:12:29;8.90;99.90
22734;DHT22;11534;51.994;5.692;2024-02-23T14:14:55;8.90;99.90
22734;DHT22;11534;51.994;5.692;2024-02-23T14:17:20;9.00;99.90
22734;DHT22;11534;51.994;5.692;2024-02-23T14:19:46;9.00;99.90
22734;DHT22;11534;51.994;5.692;2024-02-23T14:22:13;8.90;99.90
22734;DHT22;11534;51.994;5.692;2024-02-23T14:24:39;8.90;99.90
22734;DHT22;11534;51.994;5.692;2024-02-23T14:27:05;8.90;99.90
22734;DHT22;11534;51.994;5.692;2024-02-23T14:29:31;8.80;99.90
22734;DHT22;11534;51.994;5.692;2024-02-23T14:31:57;8.90;99.90
22734;DHT22;11534;51.994;5.692;2024-02-23T14:34:22;8.80;99.90
22734;DHT22;11534;51.994;5.692;2024-02-23T14:36:49;8.80;99.90
22734;DHT22;11534;51.994;5.692;2024-02-23T14:39:15;9.00;99.90
22734;DHT22;11534;51.994;5.692;2024-02-23T14:41:41;9.10;99.90
22734;DHT22;11534;51.994;5.692;2024-02-23T14:44:08;9.10;99.90
22734;DHT22;11534;51.994;5.692;2024-02-23T14:46:33;9.10;99.90
22734;DHT22;11534;51.994;5.692;2024-02-23T14:48:59;9.10;99.90
22734;DHT22;11534;51.994;5.692;2024-02-23T14:51:25;9.00;99.90
22734;DHT22;11534;51.994;5.692;2024-02-23T14:53:51;9.00;99.90
22734;DHT22;11534;51.994;5.692;2024-02-23T14:56:16;8.80;99.90
22734;DHT22;11534;51.994;5.692;2024-02-23T14:58:42;8.70;99.90
22734;DHT22;11534;51.994;5.692;2024-02-23T15:01:08;8.50;99.90
22734;DHT22;11534;51.994;5.692;2024-02-23T15:03:34;8.50;99.90
22734;DHT22;11534;51.994;5.692;2024-02-23T15:05:59;8.50;99.90
22734;DHT22;11534;51.994;5.692;2024-02-23T15:08:27;8.40;99.90
22734;DHT22;11534;51.994;5.692;2024-02-23T15:10:52;8.40;99.90
22734;DHT22;11534;51.994;5.692;2024-02-23T15:13:19;8.30;99.90
22734;DHT22;11534;51.994;5.692;2024-02-23T15:15:44;8.30;99.90
22734;DHT22;11534;51.994;5.692;2024-02-23T15:18:10;8.30;99.90
22734;DHT22;11534;51.994;5.692;2024-02-23T15:20:36;8.30;99.90
22734;DHT22;11534;51.994;5.692;2024-02-23T15:23:02;8.20;99.90
22734;DHT22;11534;51.994;5.692;2024-02-23T15:25:28;8.20;99.90
22734;DHT22;11534;51.994;5.692;2024-02-23T15:27:53;8.10;99.90
22734;DHT22;11534;51.994;5.692;2024-02-23T15:30:23;8.00;99.90
22734;DHT22;11534;51.994;5.692;2024-02-23T15:32:49;7.90;99.90
22734;DHT22;11534;51.994;5.692;2024-02-23T15:35:15;7.80;99.90
22734;DHT22;11534;51.994;5.692;2024-02-23T15:37:41;7.70;99.90
22734;DHT22;11534;51.994;5.692;2024-02-23T15:40:07;7.60;99.90
22734;DHT22;11534;51.994;5.692;2024-02-23T15:42:33;7.60;99.90
22734;DHT22;11534;51.994;5.692;2024-02-23T15:45:04;7.70;99.90
22734;DHT22;11534;51.994;5.692;2024-02-23T15:47:32;7.70;99.90
22734;DHT22;11534;51.994;5.692;2024-02-23T15:49:57;7.80;99.90